Enderlin, North Dakota
Current Conditions -  °F | °C
As of 8:35 AM on Friday 24 Oct 2014 (Local Time) from KGWR Reporting Station
Clear Clear  
Wind Chill: 41°   Ceiling: Unl
Heat Index: 46°   Visibility: 10mi
Dew Point: 46°   Wind: 13mph
Humidity: 100%   Direction: 230°SW
Pressure: 29.83"   Gusts: NA
Location:  46.62°N, 97.6°W
Report Text: KGWR 241335Z AUTO 23011KT 10SM CLR 08/08 A2983 RMK A01 P000
Loading
Personal Weather Stations






























Interactive Weather Map New forecast layout! Learn more

10-Day Weather Forecast

Advertisements
Track Severe Weather on mobile